New England District Corps of Engineers
River Gages
January 24, 2021 07:37 PM
Legend: Warning Stage Flood Stage
Gage Drainage
Area
( mi2 )
Date/Time Stage
(ft)
Q
(cfs)
6 Hour
Change
Stage (ft)
6 Hour
Change
Flow (cfs)
CSM
Q/DA
Warning
Flow
Warning
Stage
Flood
Flow
Flood
Stage
UPPER CONNECTICUT RIVER BASIN
Basin Regulator: Greg Hanlon
Ashuelot River Near Gilsum, Nh 71.1 24 JAN 06:30 pm 3.28 103 .20 24 1.4 n/a n/a n/a n/a
Ashuelot River @ Hinsdale, Nh 420 24 JAN 06:45 pm 3.53 n/a .03 n/a n/a 6170 8 9360 9
Ashuelot River @ Keene, Nh 114 24 JAN 06:30 pm 65.65 128 -.20 -25 1.1 n/a 71.5 n/a 73
Connecticut River @ West Lebanon, Nh 4092 24 JAN 06:45 pm 8.35 n/a 3.37 n/a n/a 29200 14 64200 22
West River At Londonderry, Vt 165 24 JAN 06:30 pm 30.05 523 .14 78 3.2 n/a n/a n/a n/a
Minnewawa Brook @ Marlborough, Nh 32 24 JAN 06:15 pm .39 n/a -.02 n/a n/a n/a 8 n/a 10
Connecticut River @ North Walpole, Nh 5493 24 JAN 06:30 pm 10.60 11,525 2.67 6,647 2.1 66900 24 93500 30
Ashuelot River @ West Swanzey, Nh 316 24 JAN 06:45 pm 6.70 n/a .25 n/a n/a 3700 10 5700 11
Ottauquechee River @ West Bridgewater, Vt 23 24 JAN 06:30 pm 2.95 26 .02 2 1.1 n/a n/a n/a n/a
White River @ West Hartford, Vt 690 24 JAN 06:30 pm 4.03 655 -.12 -75 .9 10150 10 37265 18
Connecticut River @ Wells River, Vt 2644 24 JAN 06:30 pm 3.75 4,013 .12 297 1.5 19535 7.5 44500 13
LOWER CONNECTICUT RIVER BASIN
Basin Regulator: Stephen Kissock
Millers River @ Athol, Ma 280 24 JAN 06:30 pm -2.42 544 .48 126 1.9 2670 2.5 3155 3.3
Ware River @ Barre Plains, Ma 115 24 JAN 06:30 pm 1.75 360 .27 59 3.1 530 2.5 1020 4
Deerfield River @ West Deerfield, Ma 558 24 JAN 06:30 pm 3.42 1,621 .25 350 2.9 10500 7 14200 8
Millers River @ Erving, Ma 372 24 JAN 07:00 pm 3.07 n/a .49 n/a n/a n/a n/a 4620 6.4
Ware River @ Gibbs Crossing, Ma 199 24 JAN 06:30 pm 2.89 307 -.17 -96 1.5 2030 5 2415 5.5
Connecticut River @ Holyoke, Ma 8309 24 JAN 06:30 pm 7.90 11,470 .10 285 1.4 75800 22 104600 26.5
Connecticut River @ Hartford, Ct 10480 24 JAN 06:30 pm 2.14 5,490 -.52 -1,820 .5 71050 16 112500 22
WB, Westfield River @ Huntington, Ma 94 24 JAN 06:30 pm 3.53 59 .00 0 .6 2810 7.5 5900 9
Chicopee River @ Indian Orchard, Ma 688 24 JAN 06:30 pm 5.49 1,141 -.14 -118 1.7 6520 10 10220 12
Connecticut River @ Montague City, Ma 7865 24 JAN 06:30 pm 11.31 11,079 1.66 4,352 1.4 64200 25 89750 30
Farmington River @ New Boston, Ma 92 24 JAN 06:30 pm 3.08 103 .17 25 1.1 1510 5.9 3470 7.5
Still River @ Robertsville, Ct 85 24 JAN 06:30 pm 2.70 227 .15 38 2.7 n/a n/a n/a n/a
Millers River @ South Royalston, Ma 189 24 JAN 06:30 pm 5.15 360 -.22 -104 1.9 n/a n/a n/a n/a
Farmington River @ Riverton, Ct 131 24 JAN 06:30 pm 4.12 259 .01 3 2.0 1505 6.5 3010 8.1
Farmington River @ Simsbury, Ct 497 24 JAN 06:30 pm 2.79 547 -.10 -30 1.1 2000 6 9200 12
Connecticut River @ Thompsonville, Ct 9661 24 JAN 06:30 pm 8.65 10,212 -.08 -737 1.1 78280 14.5 156960 19.2
Farmington River @ Unionville, Ct 378 24 JAN 06:30 pm 5.77 536 -.14 -84 1.4 3770 9 9130 12
Millers River @ Winchendon, Ma 82 24 JAN 07:00 pm 5.02 n/a -.05 n/a n/a n/a n/a n/a n/a
Priest Brook @ Winchendon, Ma 19 24 JAN 06:45 pm 2.83 n/a .05 n/a n/a n/a n/a n/a n/a
Westfield River @ Westfield, Ma 497 24 JAN 06:30 pm 4.22 550 -.12 -63 1.1 4000 8 11700 13
MERRIMACK RIVER BASIN
Basin Regulator: Laura Fraser
Smith River @ Bristol, Nh 86 24 JAN 06:45 pm 2.54 n/a .18 n/a n/a 1540 6.5 2390 8
Concord River @ Lowell, Ma 400 24 JAN 06:30 pm 5.89 999 -.01 -8 2.5 2580 7.5 3190 8
Merrimack River @ Concord, Nh 2385 24 JAN 06:30 pm 4.32 4,176 -.26 -484 1.8 18000 10 30200 13.7
Warner River @ Davisville, Nh 146 24 JAN 06:30 pm 4.78 304 -.54 -199 2.1 1140 6.5 2340 8
Merrimack River @ Franklin Jct, Nh 1507 24 JAN 06:30 pm 5.13 1,752 -.25 -295 1.2 15980 13 18180 14
Merrimack River @ Goffs Falls, Nh 3092 24 JAN 06:45 pm 5.15 4,938 -.39 -1,141 1.6 36450 12 46200 14
Piscataquog River @ Goffstown, Nh 202 24 JAN 06:30 pm 4.60 334 .41 132 1.7 1160 6 3580 8.5
Merrimack River @ Haverhill, Ma 4900 24 JAN 07:15 pm .73 n/a -1.80 n/a n/a n/a n/a n/a n/a
Contoocook River @ Henniker, Nh 368 24 JAN 06:30 pm 6.46 506 -.41 -178 1.4 2230 9 6170 11.5
E.B. Pemigewasset River @ Lincoln, Nh 115 24 JAN 07:15 pm 3.76 n/a .08 n/a n/a n/a n/a n/a n/a
Merrimack River @ Lowell, Ma 4635 24 JAN 06:30 pm 43.98 7,793 1.03 3,230 1.7 29900 49 46050 52
Spicket River @ Methuen, Ma 62 24 JAN 06:30 pm 3.89 54 .11 13 .9 510 6.5 860 8
Nashua River @ East Pepperell, Ma 316 24 JAN 06:30 pm 2.58 698 -.03 -13 2.2 3000 6.5 4300 8
Pemmigewasset River @ Plymouth, Nh 622 24 JAN 06:30 pm 1.30 782 .29 302 1.3 9400 8 18280 13
Contoocook River @ Peterborough, Nh 68 24 JAN 06:30 pm 1.88 96 -.56 -129 1.4 660 3.5 2680 6
Baker River @ Rumney, Nh 143 24 JAN 06:30 pm 1.03 151 .08 18 1.1 2750 5.3 6910 9.8
Contoocook River @ Riverhill, Nh 760 24 JAN 06:30 pm 10.43 216 -.07 -34 .3 5640 14.7 12000 18
Souhegan River @ Souhegan, Nh 171 24 JAN 06:30 pm 3.51 259 .18 55 1.5 2280 6.5 5000 9
Winnipesaukee River @ Tilton, Nh 471 24 JAN 06:30 pm 3.78 793 .01 5 1.7 3020 7 3450 7.5
Pemigewasset River @ Woodstock, Nh 193 24 JAN 06:30 pm 2.41 133 -.23 -69 .7 4790 7 9750 9
Shawsheen River @ Wilmington, Ma 37 24 JAN 06:30 pm 2.87 55 -.05 -5 1.5 240 5 620 7
THAMES RIVER BASIN
Basin Regulator: Steven Simmer
Natchaug River @ Chaplin, Ct 68 24 JAN 07:00 pm 3.35 n/a .02 n/a n/a n/a n/a n/a n/a
Willimantic River @ Coventry, Ct 121 24 JAN 06:15 pm 3.89 252 -.56 -151 2.1 1175 6.5 2800 9
Chapin Brook @ Dike B, Mansfield H., Ct 2.3 24 JAN 06:30 pm 26.12 n/a .00 n/a n/a n/a 32 n/a n/a
Fenton River @ Mansfield, Ct 18 24 JAN 07:15 pm 3.65 n/a -.06 n/a n/a n/a n/a n/a n/a
Quinebaug River @ Jewett City, Ct 715 24 JAN 06:30 pm 7.18 1,457 .02 13 2.0 7770 13.4 13600 17.5
Quinebaug River @ Putnam, Ct 331 24 JAN 06:30 pm 3.90 739 .19 101 2.2 3340 7.5 5270 9.5
Quinebaug River @ Quinebaug, Ct 155 24 JAN 07:00 pm 3.34 n/a -.17 n/a n/a 2520 6 n/a n/a
Mt. Hope River @ Warrenville, Ct 29 24 JAN 06:15 pm 1.85 44 -.30 -29 1.5 750 6 1200 7
French River @ Webster, Ma 85 24 JAN 06:30 pm 5.51 177 -.01 -3 2.1 580 6.9 1000 8.4
Shetucket River @ Willimantic, Ct 401 24 JAN 06:30 pm 3.62 787 .47 258 2.0 4005 7.5 9160 11.3
NAUGATUCK RIVER BASIN
Basin Regulator: Megan Burke
Naugatuck River @ Beacon Falls, Ct 259 24 JAN 06:45 pm 2.22 n/a .10 n/a n/a 4200 7 10700 10.7
Housatonic River @ Stevenson, Ct 1545 24 JAN 06:30 pm 6.69 4,364 3.73 3,715 2.8 13700 11 27230 15
Naugatuck River @ Waterbury, Ct 174 24 JAN 06:30 pm 7.29 226 .10 39 1.3 2150 10 5220 12.8
BLACKSTONE RIVER BASIN
Basin Regulator: Steven Simmer
Branch River @ Forestdale, Ri 91.2 24 JAN 06:15 pm 3.00 174 -.03 -7 1.9 n/a n/a n/a n/a
Blackstone River @ Millbury, Ma 71 24 JAN 07:00 pm 2.32 n/a .07 n/a n/a 720 4 1970 6.5
Blackstone River @ Northbridge, Ma 139 24 JAN 06:30 pm 3.96 n/a -.02 n/a n/a 1115 5.8 3100 9
Blackstone River @ Uxbridge, Ma 244 24 JAN 07:00 pm 8.30 n/a -.10 n/a n/a 2715 13 5710 17.5
Blackstone River @ Woonsocket, Ri 416 24 JAN 06:45 pm 2.88 897 -.06 -33 2.2 4400 7 6670 9